Aeroporto :
LOGIN :

Iscrizione | Disclaimer

   EN    FR    IT 

 










Sommario :    VFR   VFR Marginale   IFR   IFR Intensivo   IFR Molto Intensivo
Visibilità : 
Base nubi : 
>= 8 km
>= 3000ft
5 / 8 km
1000 / 3000 ft
1500m / 5 km
500 / 1000 ft
800 / 1500m
200 / 500 ft
< 800m
< 200 ft
Simboli :   Temporali  Nebbia  Neve Forte  Precipitazioni Forti  Vento > 20 kt
SIGMETs :   Varie  Temporali  Ghiacco  Turbolenza  Onda orograficha  Ceneri Vulcaniche






- Altitudine del aeroporto : 9 ft
- Codice IATA : MIR


DTMB - Habib Bourguliba Int. Monastir

ULTIMO METAR :
  • 131430Z 19011KT CAVOK 19/07 Q1009

METARs OBSOLETI :
  • 131400Z 19012KT 8000 NSC 20/08 Q1010
  • 131330Z 20014KT 8000 NSC 20/07 Q1010
  • 131300Z 21013KT 8000 NSC 20/08 Q1010
  • 131230Z 21012KT 8000 NSC 19/06 Q1010
  • 131200Z 21011KT 8000 NSC 19/07 Q1010
  • 131130Z 22012KT 8000 NSC 19/08 Q1011

TAF TAF DTMB
Valido dal 13 a 12 ore il 14 a 12 ore UTC


131100Z 1312/1412 22012KT 8000 FEW023
BECMG 1404/1406 28008KT



MetMap, La meteo Aeronautica in un colpo d'occhio ! - Copyright ORBIFLY Dicembre 2007 - Disclaimer

ORBIFLY MET'MAP TEAM :

Programmazione e sviluppo : Alexandra Zaïnal
Concezione e sviluppo : Baudouin d'Aumeries
Co-Programmazione e sviluppo : Marc-Olivier Méhu
Supporto tecnico e logistico : Manuel Goepfert
Aiuto per la traduzione : Arnaldo La Scala

Contatto : metmap@orbifly.com




FONTI E CREDITI :

   NOAA